This is the latest recevied weather packets stored in our database for station/object SP5IZJ-2. If no packets are shown the sender has not sent any weather packets the latest 10 day(s).
| Time | Temp. | Humidity | Pressure | Rain* | Wind** | Luminosity | Snow |
|---|---|---|---|---|---|---|---|
| 1787513267 | 12.78° C | 81% | 1012.2 hPa | 0 mm | - | - | - |
| 1787512890 | 12.78° C | 80% | 1012.2 hPa | 0 mm | - | - | - |
| 1787512428 | 12.78° C | 79% | 1012.3 hPa | 0 mm | - | - | - |
| 1787511587 | 13.33° C | 78% | 1012.4 hPa | 0 mm | - | - | - |
| 1787511168 | 13.33° C | 77% | 1012.3 hPa | 0 mm | - | - | - |
| 1787510761 | 13.33° C | 76% | 1012.2 hPa | 0 mm | - | - | - |
| 1787510329 | 13.89° C | 76% | 1012.1 hPa | 0 mm | - | - | - |
| 1787509073 | 14.44° C | 73% | 1012.3 hPa | 0 mm | - | - | - |
| 1787508658 | 15° C | 72% | 1012.3 hPa | 0 mm | - | - | - |
| 1787508226 | 15° C | 71% | 1012.2 hPa | 0 mm | - | - | - |
| 1787507812 | 15.56° C | 70% | 1012.1 hPa | 0 mm | - | - | - |
| 1787506566 | 16.11° C | 67% | 1012 hPa | 0 mm | - | - | - |
| 1787506127 | 16.11° C | 67% | 1012 hPa | 0 mm | - | - | - |
| 1787505287 | 16.67° C | 65% | 1012 hPa | 0 mm | - | - | - |
| 1787504878 | 16.67° C | 64% | 1012 hPa | 0 mm | - | - | - |
| 1787504448 | 16.67° C | 64% | 1011.9 hPa | 0 mm | - | - | - |
| 1787503188 | 17.22° C | 63% | 1011.9 hPa | 0 mm | - | - | - |
| 1787501516 | 17.78° C | 59% | 1011.7 hPa | 0 mm | - | - | - |
| 1787500669 | 18.33° C | 56% | 1011.7 hPa | 0 mm | - | - | - |
| 1787498150 | 22.78° C | 52% | 1011.7 hPa | 0 mm | - | - | - |
| 1787497330 | 19.44° C | 56% | 1011.6 hPa | 0 mm | - | - | - |
| 1787496891 | 21.11° C | 53% | 1011.6 hPa | 0 mm | - | - | - |
| 1787496471 | 21.67° C | 52% | 1011.4 hPa | 0 mm | - | - | - |
| 1787496055 | 21.67° C | 51% | 1011.3 hPa | 0 mm | - | - | - |
| 1787495642 | 21.11° C | 54% | 1011.3 hPa | 0 mm | - | - | - |
* Rain latest hour (hover to see other rain measurements)
** Current wind speed in m/s (hover to see current wind gust speed)